Time;durP1;ratioP1;P1;durP2;ratioP2;P2;SDS_P1;SDS_P2;PMS_P1;PMS_P2;Temp;Humidity;BMP_temperature;BMP_pressure;BME280_temperature;BME280_humidity;BME280_pressure;Samples;Min_cycle;Max_cycle;Signal;HPM_P1;HPM_P2
2023/07/18 00:00:43;;;;;;;7.78;4.40;;;;;;;19.25;62.11;96672.34;2090033;28;20053;-58
2023/07/18 00:01:44;;;;;;;9.23;5.00;;;;;;;19.24;61.79;96668.00;2090384;28;20052;-58
2023/07/18 00:02:45;;;;;;;8.95;5.03;;;;;;;19.16;61.20;96656.25;2090419;28;20040;-58
2023/07/18 00:03:46;;;;;;;8.93;4.70;;;;;;;19.21;61.90;96665.59;2089985;28;20044;-58
2023/07/18 00:04:47;;;;;;;8.00;4.85;;;;;;;19.18;61.74;96664.88;2090338;28;20044;-58
2023/07/18 00:05:48;;;;;;;7.32;5.38;;;;;;;19.17;62.45;96671.09;2090705;28;20068;-58
2023/07/18 00:06:49;;;;;;;8.20;5.07;;;;;;;19.09;61.80;96659.44;2089690;28;20432;-58
2023/07/18 00:07:51;;;;;;;8.23;4.43;;;;;;;19.06;61.70;96655.22;2093163;28;20056;-58
2023/07/18 00:08:52;;;;;;;8.85;5.20;;;;;;;19.02;62.14;96651.13;2090381;28;20049;-58
2023/07/18 00:09:53;;;;;;;8.95;5.30;;;;;;;19.12;62.56;96670.56;2090222;28;20087;-58
2023/07/18 00:10:54;;;;;;;10.77;4.82;;;;;;;19.09;62.72;96675.22;2090493;28;20041;-58
2023/07/18 00:11:56;;;;;;;8.48;4.82;;;;;;;19.07;62.73;96672.69;2090133;28;20049;-58
2023/07/18 00:12:57;;;;;;;8.85;5.57;;;;;;;19.06;62.99;96675.41;2090048;28;20084;-58
2023/07/18 00:13:58;;;;;;;8.35;5.25;;;;;;;19.03;63.04;96673.88;2090602;28;20392;-58
2023/07/18 00:15:00;;;;;;;9.55;4.97;;;;;;;19.00;63.40;96665.31;2090480;28;20048;-58
2023/07/18 00:16:01;;;;;;;9.45;5.25;;;;;;;18.95;63.30;96660.38;2090548;28;20055;-58
2023/07/18 00:17:02;;;;;;;8.07;5.10;;;;;;;18.92;63.32;96663.22;2090281;28;20041;-58
2023/07/18 00:18:03;;;;;;;9.02;4.55;;;;;;;18.78;62.94;96648.41;2089775;28;20071;-58
2023/07/18 00:19:04;;;;;;;10.18;5.15;;;;;;;18.75;63.68;96655.69;2090282;28;20036;-58
2023/07/18 00:20:09;;;;;;;8.73;5.20;;;;;;;18.73;63.54;96659.22;2090396;28;20053;-58
2023/07/18 00:21:12;;;;;;;10.05;4.80;;;;;;;18.68;64.13;96663.97;2090383;28;20045;-58
2023/07/18 00:22:13;;;;;;;8.80;5.35;;;;;;;18.64;64.17;96662.50;2090077;28;20181;-58
2023/07/18 00:23:14;;;;;;;7.80;4.97;;;;;;;18.58;64.82;96662.94;2090288;28;20057;-58
2023/07/18 00:24:15;;;;;;;11.27;5.10;;;;;;;18.57;64.96;96668.28;2089869;28;20065;-58
2023/07/18 00:25:19;;;;;;;10.10;5.00;;;;;;;18.56;65.28;96663.97;2090324;28;20045;-58
2023/07/18 00:26:20;;;;;;;8.35;5.30;;;;;;;18.52;65.30;96658.06;2090100;28;20049;-58
2023/07/18 00:27:21;;;;;;;8.07;4.75;;;;;;;18.55;65.46;96667.53;2090076;28;20053;-58
2023/07/18 00:28:23;;;;;;;8.52;4.65;;;;;;;18.51;65.01;96659.88;2090081;28;20049;-58
2023/07/18 00:29:24;;;;;;;13.30;5.32;;;;;;;18.49;65.32;96655.66;2088577;28;20148;-58
2023/07/18 00:30:26;;;;;;;8.60;4.93;;;;;;;18.43;65.78;96651.66;2080743;28;20057;-58
2023/07/18 00:31:27;;;;;;;10.02;5.05;;;;;;;18.40;66.17;96656.28;2081419;28;20057;-58
2023/07/18 00:32:28;;;;;;;9.43;5.25;;;;;;;18.37;66.60;96661.75;2088889;28;20053;-58
2023/07/18 00:33:29;;;;;;;9.20;4.90;;;;;;;18.32;66.24;96659.44;2090044;28;20048;-59
2023/07/18 00:34:30;;;;;;;12.43;5.68;;;;;;;18.28;66.55;96669.34;2089749;28;20048;-58
2023/07/18 00:35:31;;;;;;;10.48;5.30;;;;;;;18.25;67.58;96668.69;2089545;28;20508;-58
2023/07/18 00:36:32;;;;;;;8.63;5.00;;;;;;;18.23;67.99;96667.94;2089314;28;20064;-58
2023/07/18 00:37:34;;;;;;;8.15;4.90;;;;;;;18.24;67.46;96674.88;2097631;28;20047;-58
2023/07/18 00:38:35;;;;;;;10.20;4.82;;;;;;;18.22;68.59;96674.97;2097242;28;20448;-58
2023/07/18 00:39:36;;;;;;;9.95;5.15;;;;;;;18.24;68.42;96672.25;2089645;28;20045;-59
2023/07/18 00:40:40;;;;;;;9.00;5.43;;;;;;;18.19;68.62;96658.56;2089671;28;20059;-58
2023/07/18 00:41:42;;;;;;;11.63;4.70;;;;;;;18.25;68.92;96664.25;2081645;28;20307;-58
2023/07/18 00:42:47;;;;;;;7.85;5.00;;;;;;;18.23;68.10;96653.03;2073359;28;20478;-58
2023/07/18 00:43:48;;;;;;;10.40;5.70;;;;;;;18.25;68.07;96659.00;2089517;28;20092;-58
2023/07/18 00:44:50;;;;;;;10.02;4.57;;;;;;;18.18;68.13;96651.66;2089676;28;20049;-59
2023/07/18 00:45:51;;;;;;;9.30;5.20;;;;;;;18.20;67.71;96663.75;2080560;28;20409;-58
2023/07/18 00:46:53;;;;;;;7.38;5.13;;;;;;;18.18;67.55;96670.06;2089328;28;20060;-58
2023/07/18 00:47:54;;;;;;;7.80;4.90;;;;;;;18.16;67.20;96666.69;2089978;28;20048;-58
2023/07/18 00:48:55;;;;;;;7.75;4.47;;;;;;;18.07;67.75;96645.31;2073148;28;20061;-58
2023/07/18 00:49:58;;;;;;;9.30;5.22;;;;;;;18.18;68.26;96665.63;2081756;28;20465;-58
2023/07/18 00:51:04;;;;;;;7.53;4.80;;;;;;;18.17;68.19;96661.28;2081573;28;20053;-58
2023/07/18 00:52:06;;;;;;;8.52;5.03;;;;;;;18.07;68.86;96647.94;2081801;28;20049;-58
2023/07/18 00:53:07;;;;;;;8.00;5.18;;;;;;;18.20;68.65;96662.88;2089470;28;20547;-58
2023/07/18 00:54:08;;;;;;;8.27;5.28;;;;;;;18.18;67.77;96665.63;2081017;28;20064;-58
2023/07/18 00:55:12;;;;;;;8.68;4.78;;;;;;;18.19;68.12;96658.56;2080995;28;20441;-58
2023/07/18 00:56:13;;;;;;;10.02;4.65;;;;;;;18.16;68.27;96659.63;2089820;28;20045;-58
2023/07/18 00:57:14;;;;;;;8.18;5.03;;;;;;;18.16;67.99;96654.38;2081311;28;20045;-58
2023/07/18 00:58:16;;;;;;;11.50;4.70;;;;;;;18.11;67.34;96639.84;2072904;28;20425;-58
2023/07/18 00:59:17;;;;;;;7.95;4.68;;;;;;;18.17;67.40;96649.94;2081232;28;20053;-58
2023/07/18 01:00:22;;;;;;;9.80;5.00;;;;;;;18.20;67.75;96655.00;2065411;28;20050;-58
2023/07/18 01:01:23;;;;;;;8.65;4.60;;;;;;;18.21;67.10;96652.28;2073917;28;20453;-58
2023/07/18 01:02:24;;;;;;;9.93;5.22;;;;;;;18.21;67.14;96651.44;2089600;28;20060;-58
2023/07/18 01:03:25;;;;;;;9.10;4.72;;;;;;;18.23;66.15;96650.41;2081327;28;20061;-58
2023/07/18 01:04:26;;;;;;;8.38;5.03;;;;;;;18.23;66.00;96653.03;2081034;28;20061;-58
2023/07/18 01:05:28;;;;;;;9.07;4.88;;;;;;;18.20;66.74;96632.19;2089729;28;20049;-58
2023/07/18 01:06:29;;;;;;;8.68;5.20;;;;;;;18.25;67.09;96639.75;2080270;28;20060;-58
2023/07/18 01:07:30;;;;;;;8.10;4.45;;;;;;;18.15;67.45;96636.94;2072992;28;20057;-58
2023/07/18 01:08:31;;;;;;;8.93;5.00;;;;;;;18.22;67.75;96648.69;2089449;28;20148;-58
2023/07/18 01:09:32;;;;;;;9.38;5.50;;;;;;;18.22;68.00;96647.84;2090071;28;20037;-58
2023/07/18 01:10:33;;;;;;;7.95;4.80;;;;;;;18.21;68.47;96651.44;2089771;28;20051;-58
2023/07/18 01:11:34;;;;;;;8.15;4.68;;;;;;;18.20;68.39;96655.00;2089444;28;20076;-58
2023/07/18 01:12:35;;;;;;;10.02;5.05;;;;;;;18.19;68.51;96654.16;2088874;28;20404;-58
2023/07/18 01:13:37;;;;;;;7.32;4.65;;;;;;;18.19;69.02;96654.16;2081253;28;20060;-58
2023/07/18 01:14:38;;;;;;;8.65;4.63;;;;;;;18.19;69.67;96651.53;2089530;28;20064;-58
2023/07/18 01:15:39;;;;;;;10.35;5.40;;;;;;;18.18;69.02;96649.84;2089048;28;20497;-58
2023/07/18 01:16:41;;;;;;;8.00;4.93;;;;;;;18.19;69.28;96650.69;2089419;28;20052;-57
2023/07/18 01:17:44;;;;;;;9.98;4.85;;;;;;;18.08;69.27;96640.91;2089474;28;20053;-57
2023/07/18 01:18:45;;;;;;;7.10;5.00;;;;;;;18.14;68.54;96644.91;2089494;28;20037;-58
2023/07/18 01:19:47;;;;;;;8.95;4.47;;;;;;;18.04;67.88;96627.13;2090245;28;20049;-57
2023/07/18 01:20:48;;;;;;;12.30;5.20;;;;;;;18.13;67.53;96651.13;2089302;28;20045;-57
2023/07/18 01:21:49;;;;;;;9.77;4.97;;;;;;;18.06;67.97;96642.78;2080907;28;20149;-58
2023/07/18 01:22:52;;;;;;;7.72;5.00;;;;;;;18.02;67.93;96639.53;2080671;28;20053;-57
2023/07/18 01:23:53;;;;;;;9.70;5.15;;;;;;;17.88;68.64;96629.06;2089155;28;20056;-57
2023/07/18 01:24:54;;;;;;;8.23;4.70;;;;;;;17.91;69.20;96639.41;2089938;28;20408;-57
2023/07/18 01:25:55;;;;;;;8.63;4.72;;;;;;;17.85;69.11;96638.03;2089894;28;20041;-58
2023/07/18 01:26:57;;;;;;;9.00;5.00;;;;;;;17.67;69.71;96619.94;2089702;28;20045;-57
2023/07/18 01:27:59;;;;;;;9.23;5.55;;;;;;;17.74;69.75;96640.47;2089274;28;20041;-57
2023/07/18 01:29:02;;;;;;;7.10;4.78;;;;;;;17.70;70.59;96641.63;2088943;28;20048;-57
2023/07/18 01:30:05;;;;;;;8.38;5.25;;;;;;;17.63;69.85;96638.53;2089851;28;20041;-57
2023/07/18 01:31:06;;;;;;;10.10;5.18;;;;;;;17.60;70.20;96632.66;2089866;28;20040;-57
2023/07/18 01:32:08;;;;;;;9.65;4.95;;;;;;;17.57;70.90;96630.25;2089733;28;20374;-57
2023/07/18 01:33:09;;;;;;;9.75;5.22;;;;;;;17.51;71.05;96638.50;2088293;28;20056;-57
2023/07/18 01:34:14;;;;;;;8.85;5.05;;;;;;;17.46;70.86;96633.56;2081101;28;20049;-57
2023/07/18 01:35:17;;;;;;;9.63;4.95;;;;;;;17.34;71.44;96622.06;2081649;28;20449;-58
2023/07/18 01:36:18;;;;;;;9.57;5.38;;;;;;;17.35;71.95;96626.38;2080984;28;20429;-57
2023/07/18 01:37:19;;;;;;;8.45;4.50;;;;;;;17.32;71.88;96629.22;2081348;28;20049;-57
2023/07/18 01:38:20;;;;;;;13.05;5.00;;;;;;;17.24;71.89;96620.97;2089425;28;20436;-57
2023/07/18 01:39:22;;;;;;;10.43;5.38;;;;;;;17.25;72.23;96620.03;2089076;28;20059;-57
2023/07/18 01:40:24;;;;;;;9.32;5.38;;;;;;;17.25;71.70;96630.53;2088827;28;20049;-57
2023/07/18 01:41:25;;;;;;;8.32;5.10;;;;;;;17.25;72.26;96629.69;2090035;28;20409;-57
2023/07/18 01:42:26;;;;;;;9.90;5.63;;;;;;;17.20;71.86;96622.94;2079966;28;20105;-57
2023/07/18 01:43:27;;;;;;;7.35;4.82;;;;;;;17.20;71.90;96622.94;2072941;28;20505;-57
2023/07/18 01:44:28;;;;;;;12.18;5.28;;;;;;;17.20;72.73;96622.09;2080766;28;20041;-57
2023/07/18 01:45:30;;;;;;;7.07;4.80;;;;;;;17.19;72.55;96626.50;2090495;28;20453;-57
2023/07/18 01:46:34;;;;;;;8.10;5.10;;;;;;;17.17;72.12;96617.88;2089668;28;20059;-57
2023/07/18 01:47:39;;;;;;;8.82;5.43;;;;;;;17.21;72.50;96629.03;2089670;28;20056;-57
2023/07/18 01:48:40;;;;;;;8.95;4.97;;;;;;;17.21;71.87;96618.53;2089130;28;20064;-57
2023/07/18 01:49:41;;;;;;;9.98;4.78;;;;;;;17.20;71.40;96622.94;2080975;28;20481;-57
2023/07/18 01:50:43;;;;;;;7.82;4.90;;;;;;;17.22;71.48;96614.97;2088727;28;20103;-57
2023/07/18 01:51:44;;;;;;;8.60;5.15;;;;;;;17.18;71.41;96613.47;2089038;28;20166;-58
2023/07/18 01:52:46;;;;;;;10.98;5.07;;;;;;;17.25;71.79;96617.41;2089108;28;20136;-58
2023/07/18 01:53:48;;;;;;;9.27;5.38;;;;;;;17.25;70.90;96617.41;2089859;28;20049;-57
2023/07/18 01:54:49;;;;;;;8.55;5.25;;;;;;;17.30;70.93;96627.63;2089678;28;20412;-57
2023/07/18 01:55:50;;;;;;;8.07;4.90;;;;;;;17.33;71.22;96623.00;2089870;28;20045;-58
2023/07/18 01:56:51;;;;;;;9.27;4.82;;;;;;;17.34;71.29;96621.22;2090008;28;20053;-57
2023/07/18 01:57:52;;;;;;;10.10;5.35;;;;;;;17.35;71.51;96615.88;2089200;28;20056;-57
2023/07/18 01:58:53;;;;;;;9.80;5.03;;;;;;;17.34;71.54;96611.53;2081000;28;20060;-57
2023/07/18 01:59:55;;;;;;;9.32;5.22;;;;;;;17.30;72.33;96607.44;2089198;28;20068;-57
2023/07/18 02:00:56;;;;;;;11.45;5.05;;;;;;;17.38;72.64;96615.69;2096835;28;20060;-57
2023/07/18 02:01:57;;;;;;;7.13;5.07;;;;;;;17.41;72.25;96618.09;2089168;28;20052;-58
2023/07/18 02:02:58;;;;;;;10.98;5.18;;;;;;;17.33;72.19;96603.78;2080813;28;20057;-57
2023/07/18 02:03:59;;;;;;;9.05;5.63;;;;;;;17.39;72.93;96621.75;2080771;28;20053;-57
2023/07/18 02:05:00;;;;;;;8.43;5.38;;;;;;;17.37;73.18;96615.75;2089019;28;20049;-57
2023/07/18 02:06:02;;;;;;;9.93;5.35;;;;;;;17.35;73.09;96617.66;2080737;28;20061;-57
2023/07/18 02:07:03;;;;;;;12.13;5.85;;;;;;;17.32;73.26;96615.22;2088890;28;20044;-57
2023/07/18 02:08:05;;;;;;;9.00;5.15;;;;;;;17.29;73.17;96623.28;2089241;28;20053;-58
2023/07/18 02:09:09;;;;;;;9.27;5.45;;;;;;;17.19;72.96;96612.56;2080686;28;20504;-57
2023/07/18 02:10:13;;;;;;;9.43;5.53;;;;;;;17.23;73.19;96621.91;2088338;28;20509;-57
2023/07/18 02:11:14;;;;;;;9.93;5.55;;;;;;;17.21;73.78;96618.53;2088647;28;20060;-57
2023/07/18 02:12:16;;;;;;;8.32;5.47;;;;;;;17.19;74.03;96628.31;2081047;28;20053;-57
2023/07/18 02:13:17;;;;;;;9.27;6.10;;;;;;;17.14;74.01;96619.88;2080695;28;20513;-58
2023/07/18 02:14:20;;;;;;;10.23;5.32;;;;;;;17.15;74.46;96624.16;2089097;28;20057;-58
2023/07/18 02:15:21;;;;;;;10.38;5.50;;;;;;;17.13;75.30;96618.16;2080714;28;20057;-57
2023/07/18 02:16:22;;;;;;;7.85;5.90;;;;;;;17.10;74.45;96613.13;2072010;28;20050;-57
2023/07/18 02:17:24;;;;;;;8.85;5.97;;;;;;;17.07;74.53;96608.06;2081068;28;20049;-57
2023/07/18 02:18:25;;;;;;;10.75;5.82;;;;;;;17.06;75.41;96622.16;2089364;28;20056;-57
2023/07/18 02:19:26;;;;;;;11.27;5.75;;;;;;;17.00;74.90;96610.25;2089205;28;20060;-57
2023/07/18 02:20:27;;;;;;;11.20;6.43;;;;;;;16.97;75.26;96613.91;2089957;28;20456;-58
2023/07/18 02:21:28;;;;;;;15.10;6.13;;;;;;;16.89;75.22;96604.81;2089668;28;20112;-58
2023/07/18 02:22:29;;;;;;;9.27;5.13;;;;;;;16.91;75.71;96616.91;2088565;28;20428;-57
2023/07/18 02:23:30;;;;;;;9.70;5.60;;;;;;;16.87;75.35;96614.59;2088327;28;20056;-57
2023/07/18 02:24:32;;;;;;;10.25;5.75;;;;;;;16.85;75.26;96614.66;2089205;28;20060;-57
2023/07/18 02:25:33;;;;;;;7.50;5.45;;;;;;;16.80;75.47;96608.88;2089177;28;20125;-57
2023/07/18 02:26:34;;;;;;;9.10;5.93;;;;;;;16.76;75.57;96602.13;2089390;28;20049;-57
2023/07/18 02:27:37;;;;;;;8.95;5.40;;;;;;;16.73;75.61;96608.38;2089480;28;20045;-57
2023/07/18 02:28:38;;;;;;;10.00;5.80;;;;;;;16.69;75.75;96612.13;2090514;28;20435;-57
2023/07/18 02:29:39;;;;;;;13.57;6.32;;;;;;;16.65;75.91;96610.66;2090046;28;20053;-57
2023/07/18 02:30:42;;;;;;;10.90;5.70;;;;;;;16.62;76.31;96615.22;2090627;28;20047;-58
2023/07/18 02:31:44;;;;;;;9.32;5.85;;;;;;;16.61;75.59;96616.16;2082482;28;20402;-57
2023/07/18 02:32:45;;;;;;;10.40;5.97;;;;;;;16.58;75.91;96616.34;2090531;28;20041;-58
2023/07/18 02:33:47;;;;;;;8.18;5.72;;;;;;;16.57;76.72;96617.28;2091337;28;20045;-57
2023/07/18 02:34:50;;;;;;;11.05;5.70;;;;;;;16.56;76.96;96616.44;2090698;28;20049;-57
2023/07/18 02:35:51;;;;;;;9.23;5.70;;;;;;;16.56;76.25;96611.19;2090769;28;20053;-58
2023/07/18 02:36:52;;;;;;;7.53;5.85;;;;;;;16.56;76.32;96616.44;2090503;28;20052;-57
2023/07/18 02:37:55;;;;;;;10.93;5.97;;;;;;;16.56;76.98;96612.97;2090660;28;20063;-57
2023/07/18 02:38:59;;;;;;;9.73;6.18;;;;;;;16.56;77.08;96615.59;2089727;28;20060;-57
2023/07/18 02:40:01;;;;;;;11.15;6.03;;;;;;;16.56;77.04;96613.81;2090368;28;20124;-57
2023/07/18 02:41:02;;;;;;;10.50;5.25;;;;;;;16.57;77.92;96618.13;2091215;28;20057;-57
2023/07/18 02:42:06;;;;;;;17.27;6.03;;;;;;;16.62;77.48;96615.22;2091103;28;20041;-57
2023/07/18 02:43:07;;;;;;;8.63;5.50;;;;;;;16.63;77.30;96614.31;2090656;28;20056;-57
2023/07/18 02:44:08;;;;;;;9.70;5.43;;;;;;;16.67;76.51;96624.47;2091102;28;20399;-57
2023/07/18 02:45:10;;;;;;;11.02;5.63;;;;;;;16.69;75.82;96621.78;2091198;28;20376;-57
2023/07/18 02:46:11;;;;;;;9.77;5.43;;;;;;;16.69;76.48;96622.63;2091046;28;20436;-57
2023/07/18 02:47:12;;;;;;;9.68;5.57;;;;;;;16.72;76.26;96619.81;2090465;28;20041;-57
2023/07/18 02:48:14;;;;;;;9.05;5.53;;;;;;;16.72;75.79;96617.19;2090254;28;20056;-57
2023/07/18 02:49:16;;;;;;;9.80;5.57;;;;;;;16.75;75.75;96613.53;2090448;28;20052;-58
2023/07/18 02:50:17;;;;;;;9.95;5.40;;;;;;;16.75;76.16;96605.66;2090924;28;20075;-57
2023/07/18 02:51:18;;;;;;;10.73;4.85;;;;;;;16.73;76.03;96604.91;2090917;28;20072;-57
2023/07/18 02:52:19;;;;;;;9.38;5.22;;;;;;;16.72;76.75;96605.84;2090996;28;20064;-57
2023/07/18 02:53:20;;;;;;;11.30;5.57;;;;;;;16.68;76.32;96601.72;2090493;28;20143;-57
2023/07/18 02:54:22;;;;;;;9.95;5.80;;;;;;;16.66;76.45;96611.47;2090220;28;20483;-57
2023/07/18 02:55:23;;;;;;;12.05;6.10;;;;;;;16.53;77.12;96590.41;2082141;28;20133;-57
2023/07/18 02:56:24;;;;;;;8.32;5.57;;;;;;;16.56;77.46;96600.72;2090237;28;20036;-57
2023/07/18 02:57:26;;;;;;;11.57;6.00;;;;;;;16.52;76.63;96605.31;2089900;28;20056;-57
2023/07/18 02:58:27;;;;;;;9.52;5.45;;;;;;;16.46;76.97;96608.28;2090373;28;20049;-57
2023/07/18 02:59:28;;;;;;;9.40;5.53;;;;;;;16.42;77.82;96611.22;2089345;28;20053;-57
2023/07/18 03:00:31;;;;;;;8.70;5.75;;;;;;;16.41;78.20;96613.00;2089909;28;20120;-57
2023/07/18 03:01:34;;;;;;;10.80;6.20;;;;;;;16.39;77.89;96614.03;2090863;28;20057;-57
2023/07/18 03:02:35;;;;;;;11.07;5.18;;;;;;;16.37;77.47;96614.09;2090755;28;20041;-57
2023/07/18 03:03:38;;;;;;;12.57;6.03;;;;;;;16.37;77.53;96616.72;2090822;28;20389;-57
2023/07/18 03:04:39;;;;;;;11.48;6.00;;;;;;;16.37;77.69;96618.50;2090789;28;20052;-57
2023/07/18 03:05:41;;;;;;;14.77;6.25;;;;;;;16.36;77.51;96620.28;2091033;28;20041;-62
2023/07/18 03:06:45;;;;;;;9.40;6.05;;;;;;;16.34;78.15;96616.91;2081857;28;20049;-62
2023/07/18 03:07:49;;;;;;;9.13;5.65;;;;;;;16.31;77.88;96614.47;2082933;28;20041;-61
2023/07/18 03:08:50;;;;;;;9.55;6.13;;;;;;;16.30;77.75;96611.03;2090854;28;20056;-62
2023/07/18 03:09:52;;;;;;;12.52;6.75;;;;;;;16.29;79.21;96618.97;2090157;28;20041;-62
2023/07/18 03:10:53;;;;;;;11.55;6.70;;;;;;;16.25;79.70;96623.56;2090363;28;20469;-61
2023/07/18 03:11:54;;;;;;;9.80;6.78;;;;;;;16.22;79.98;96618.47;2089651;28;20140;-62
2023/07/18 03:12:55;;;;;;;11.95;6.88;;;;;;;16.21;80.14;96618.56;2090755;28;20488;-62
2023/07/18 03:13:56;;;;;;;12.75;6.13;;;;;;;16.18;80.71;96622.22;2090447;28;20044;-62
2023/07/18 03:14:58;;;;;;;10.15;5.90;;;;;;;16.15;81.43;96616.34;2089781;28;20060;-62
2023/07/18 03:15:59;;;;;;;9.27;5.85;;;;;;;16.14;81.30;96614.63;2090944;28;20041;-61
2023/07/18 03:17:00;;;;;;;10.38;6.80;;;;;;;16.13;82.09;96616.41;2089628;28;20060;-62
2023/07/18 03:18:01;;;;;;;11.57;6.28;;;;;;;16.11;82.32;96615.66;2081613;28;20049;-62
2023/07/18 03:19:02;;;;;;;10.57;6.57;;;;;;;16.12;82.54;96613.88;2081817;28;20057;-62
2023/07/18 03:20:16;;;;;;;10.00;6.30;;;;;;;16.12;82.37;96611.25;2089496;28;20049;-62
2023/07/18 03:21:17;;;;;;;10.07;6.07;;;;;;;16.16;82.74;96618.00;2090016;28;20064;-62
2023/07/18 03:22:18;;;;;;;9.70;6.30;;;;;;;16.17;82.35;96615.31;2090196;28;20051;-62
2023/07/18 03:23:19;;;;;;;12.25;6.25;;;;;;;16.19;83.25;96616.03;2090864;28;20048;-62
2023/07/18 03:24:20;;;;;;;13.23;6.40;;;;;;;16.20;82.26;96614.25;2089969;28;20041;-62
2023/07/18 03:25:21;;;;;;;9.10;6.22;;;;;;;16.12;81.88;96595.53;2082029;28;20057;-62
2023/07/18 03:26:22;;;;;;;11.77;6.68;;;;;;;16.21;82.64;96613.34;2090055;28;20040;-62
2023/07/18 03:27:26;;;;;;;12.23;6.63;;;;;;;16.22;82.34;96612.38;2090575;28;20045;-62
2023/07/18 03:28:28;;;;;;;9.82;6.15;;;;;;;16.22;82.77;96612.38;2090704;28;20049;-62
2023/07/18 03:29:30;;;;;;;9.98;6.28;;;;;;;16.22;82.29;96607.16;2090315;28;20041;-62
2023/07/18 03:30:31;;;;;;;9.70;6.68;;;;;;;16.17;82.04;96601.34;2090679;28;20049;-62
2023/07/18 03:31:33;;;;;;;10.95;6.25;;;;;;;16.20;81.46;96611.63;2090587;28;20445;-62
2023/07/18 03:32:34;;;;;;;8.95;5.85;;;;;;;16.26;82.38;96616.53;2090510;28;20055;-62
2023/07/18 03:33:35;;;;;;;8.88;6.35;;;;;;;16.28;82.59;96620.75;2090574;28;20052;-62
2023/07/18 03:34:36;;;;;;;9.55;6.07;;;;;;;16.29;82.08;96617.19;2090735;28;20037;-62
2023/07/18 03:35:37;;;;;;;10.02;5.80;;;;;;;16.32;81.70;96626.63;2090817;28;20397;-62
2023/07/18 03:36:38;;;;;;;9.93;6.90;;;;;;;16.32;82.63;96616.16;2090280;28;20053;-62
2023/07/18 03:37:39;;;;;;;10.20;5.15;;;;;;;16.33;82.38;96615.19;2089658;28;20049;-61
2023/07/18 03:38:41;;;;;;;10.25;6.13;;;;;;;16.34;82.35;96622.16;2089546;28;20477;-62
2023/07/18 03:39:42;;;;;;;12.68;6.45;;;;;;;16.31;81.96;96620.56;2090838;28;20053;-62
2023/07/18 03:40:43;;;;;;;8.52;6.13;;;;;;;16.31;81.76;96625.78;2090558;28;20045;-62
2023/07/18 03:41:44;;;;;;;10.25;6.45;;;;;;;16.29;82.21;96617.19;2090087;28;20053;-62
2023/07/18 03:42:45;;;;;;;10.57;6.30;;;;;;;16.23;82.19;96614.09;2090401;28;20057;-62
2023/07/18 03:43:46;;;;;;;9.23;6.35;;;;;;;16.25;82.59;96614.81;2090166;28;20405;-62
2023/07/18 03:44:48;;;;;;;12.32;7.40;;;;;;;16.23;81.86;96617.56;2090630;28;20041;-62
2023/07/18 03:45:49;;;;;;;10.38;6.53;;;;;;;16.22;82.31;96618.47;2090698;28;20040;-61
2023/07/18 03:46:50;;;;;;;10.57;6.45;;;;;;;16.21;82.35;96621.19;2090113;28;20480;-62
2023/07/18 03:47:51;;;;;;;10.32;6.03;;;;;;;16.18;82.48;96616.97;2090857;28;20053;-62
2023/07/18 03:48:52;;;;;;;9.60;6.15;;;;;;;16.16;82.97;96624.09;2090131;28;20055;-62
2023/07/18 03:49:53;;;;;;;9.70;6.07;;;;;;;16.05;82.93;96601.16;2090516;28;20052;-62
2023/07/18 03:50:54;;;;;;;12.50;6.50;;;;;;;16.13;82.67;96613.78;2090348;28;20052;-62
2023/07/18 03:51:55;;;;;;;10.30;6.38;;;;;;;16.10;83.25;96620.06;2090482;28;20052;-61
2023/07/18 03:52:56;;;;;;;12.82;6.47;;;;;;;16.09;82.66;96618.38;2090436;28;20373;-62
2023/07/18 03:53:57;;;;;;;13.23;5.93;;;;;;;16.08;82.37;96621.06;2090078;28;20057;-61
2023/07/18 03:54:59;;;;;;;9.90;6.10;;;;;;;16.08;82.56;96619.28;2090554;28;20052;-62
2023/07/18 03:56:06;;;;;;;12.02;6.80;;;;;;;16.08;83.56;96621.91;2090263;28;20053;-62
2023/07/18 03:57:07;;;;;;;10.50;6.53;;;;;;;16.07;82.90;96609.75;2090347;28;20057;-62
2023/07/18 03:58:08;;;;;;;9.88;5.97;;;;;;;16.06;83.60;96613.31;2090909;28;20049;-62
2023/07/18 03:59:09;;;;;;;10.77;6.20;;;;;;;16.08;83.82;96615.84;2090332;28;20060;-62
2023/07/18 04:00:14;;;;;;;9.70;6.43;;;;;;;16.07;83.50;96614.16;2090609;28;20048;-62
2023/07/18 04:01:15;;;;;;;11.52;6.68;;;;;;;16.10;83.24;96617.44;2090331;28;20061;-62
2023/07/18 04:02:16;;;;;;;10.52;6.88;;;;;;;16.02;83.61;96603.94;2090448;28;20052;-62
2023/07/18 04:03:17;;;;;;;12.13;7.03;;;;;;;16.13;83.77;96612.94;2090437;28;20053;-62
2023/07/18 04:04:18;;;;;;;12.52;6.47;;;;;;;16.16;83.97;96610.16;2089991;28;20481;-62
2023/07/18 04:05:20;;;;;;;11.65;6.28;;;;;;;16.17;83.39;96610.06;2090024;28;20045;-61
2023/07/18 04:06:21;;;;;;;10.77;5.90;;;;;;;16.18;83.33;96611.75;2090003;28;20053;-61
2023/07/18 04:07:22;;;;;;;12.05;6.97;;;;;;;16.20;82.79;96611.63;2089861;28;20369;-61
2023/07/18 04:08:23;;;;;;;13.05;6.20;;;;;;;16.21;83.17;96601.06;2090650;28;20057;-62
2023/07/18 04:09:25;;;;;;;8.02;5.80;;;;;;;16.23;82.61;96608.84;2090373;28;20041;-62
2023/07/18 04:10:28;;;;;;;9.68;5.90;;;;;;;16.24;82.76;96607.91;2090245;28;20362;-61
2023/07/18 04:11:29;;;;;;;12.77;6.40;;;;;;;16.18;82.52;96585.53;2090699;28;20052;-63
2023/07/18 04:12:30;;;;;;;14.13;6.43;;;;;;;16.20;82.66;96595.91;2090352;28;20044;-63
2023/07/18 04:13:31;;;;;;;10.70;6.35;;;;;;;16.26;82.13;96599.03;2090311;28;20045;-61
2023/07/18 04:14:32;;;;;;;11.68;6.22;;;;;;;16.30;82.55;96602.28;2090154;28;20412;-61
2023/07/18 04:15:33;;;;;;;8.18;6.15;;;;;;;16.32;82.13;96608.28;2090037;28;20062;-62
2023/07/18 04:16:34;;;;;;;8.90;5.75;;;;;;;16.32;82.05;96603.03;2090386;28;20045;-63
2023/07/18 04:17:35;;;;;;;9.60;6.05;;;;;;;16.37;81.86;96608.03;2090489;28;20056;-63
2023/07/18 04:18:37;;;;;;;11.98;6.28;;;;;;;16.36;82.63;96599.31;2090569;28;20048;-62
2023/07/18 04:19:38;;;;;;;10.25;6.28;;;;;;;16.40;81.78;96608.66;2090726;28;20052;-63
2023/07/18 04:20:39;;;;;;;7.82;5.93;;;;;;;16.42;82.15;96604.19;2089835;28;20048;-63
2023/07/18 04:21:40;;;;;;;9.60;6.13;;;;;;;16.43;81.80;96600.59;2090840;28;20469;-63
2023/07/18 04:22:41;;;;;;;8.75;6.10;;;;;;;16.44;82.02;96599.69;2090382;28;20059;-63
2023/07/18 04:23:42;;;;;;;11.35;6.38;;;;;;;16.44;81.32;96597.06;2090176;28;20075;-63
2023/07/18 04:24:43;;;;;;;9.57;5.70;;;;;;;16.45;81.67;96604.00;2090682;28;20060;-63
2023/07/18 04:26:01;;;;;;;10.35;5.78;;;;;;;16.45;81.46;96598.75;2090234;28;20052;-63
2023/07/18 04:27:02;;;;;;;8.40;6.03;;;;;;;16.45;81.22;96598.75;2090522;28;20052;-63
2023/07/18 04:28:03;;;;;;;10.95;6.18;;;;;;;16.47;82.14;96604.75;2090248;28;20056;-62
2023/07/18 04:29:04;;;;;;;7.55;5.38;;;;;;;16.47;81.59;96599.50;2090236;28;20072;-61
2023/07/18 04:30:06;;;;;;;9.90;6.22;;;;;;;16.38;81.69;96578.25;2090136;28;20048;-61
2023/07/18 04:31:08;;;;;;;9.82;6.00;;;;;;;16.47;81.97;96594.25;2090390;28;20397;-61
2023/07/18 04:32:10;;;;;;;10.43;5.75;;;;;;;16.48;81.40;96598.56;2090530;28;20049;-61
2023/07/18 04:33:12;;;;;;;10.52;5.93;;;;;;;16.48;81.99;96595.94;2090060;28;20452;-61
2023/07/18 04:34:15;;;;;;;11.23;6.22;;;;;;;16.48;81.82;96595.09;2090216;28;20141;-61
2023/07/18 04:35:16;;;;;;;10.30;6.57;;;;;;;16.48;82.38;96590.69;2090106;28;20068;-61
2023/07/18 04:36:17;;;;;;;8.05;5.95;;;;;;;16.47;82.25;96586.41;2089997;28;20053;-61
2023/07/18 04:37:18;;;;;;;13.43;6.68;;;;;;;16.48;81.70;96582.00;2088853;28;20052;-61
2023/07/18 04:38:20;;;;;;;11.30;7.00;;;;;;;16.49;81.85;96588.91;2089506;28;20408;-61
2023/07/18 04:39:21;;;;;;;11.50;6.07;;;;;;;16.51;82.19;96590.50;2089962;28;20064;-61
2023/07/18 04:40:22;;;;;;;13.23;6.65;;;;;;;16.56;82.40;96592.84;2089722;28;20055;-62
2023/07/18 04:41:23;;;;;;;15.02;6.95;;;;;;;16.50;82.89;96573.09;2081844;28;20413;-62
2023/07/18 04:42:24;;;;;;;9.85;6.55;;;;;;;16.63;82.52;96580.22;2081004;28;20055;-61
2023/07/18 04:43:26;;;;;;;14.00;6.15;;;;;;;16.70;82.13;96587.56;2089862;28;20056;-61
2023/07/18 04:44:27;;;;;;;12.05;6.63;;;;;;;16.76;81.46;96586.38;2090108;28;20393;-61
2023/07/18 04:45:29;;;;;;;13.07;7.00;;;;;;;16.81;81.11;96581.69;2089781;28;20064;-61
2023/07/18 04:46:31;;;;;;;12.35;6.10;;;;;;;16.87;81.07;96583.94;2090166;28;20072;-63
2023/07/18 04:47:32;;;;;;;12.88;6.57;;;;;;;16.92;80.46;96589.75;2090491;28;20079;-63
2023/07/18 04:48:34;;;;;;;11.93;6.88;;;;;;;16.88;81.00;96571.66;2090064;28;20151;-63